sensor_id;sensor_type;location;lat;lon;timestamp;temperature;humidity
36424;DHT22;22458;45.328;9.514;2022-11-11T00:01:53;14.20;90.80
36424;DHT22;22458;45.328;9.514;2022-11-11T00:04:37;14.30;90.70
36424;DHT22;22458;45.328;9.514;2022-11-11T00:07:21;14.40;90.70
36424;DHT22;22458;45.328;9.514;2022-11-11T00:10:06;14.40;90.50
36424;DHT22;22458;45.328;9.514;2022-11-11T00:12:50;14.40;90.40
36424;DHT22;22458;45.328;9.514;2022-11-11T00:15:37;14.40;90.40
36424;DHT22;22458;45.328;9.514;2022-11-11T00:18:24;14.40;90.30
36424;DHT22;22458;45.328;9.514;2022-11-11T00:21:28;14.40;90.30
36424;DHT22;22458;45.328;9.514;2022-11-11T00:24:26;14.20;90.30
36424;DHT22;22458;45.328;9.514;2022-11-11T00:27:30;14.10;90.40
36424;DHT22;22458;45.328;9.514;2022-11-11T00:30:14;14.00;90.60
36424;DHT22;22458;45.328;9.514;2022-11-11T00:32:58;14.00;90.60
36424;DHT22;22458;45.328;9.514;2022-11-11T00:35:43;13.90;90.80
36424;DHT22;22458;45.328;9.514;2022-11-11T00:38:36;13.80;90.90
36424;DHT22;22458;45.328;9.514;2022-11-11T00:41:30;13.90;90.80
36424;DHT22;22458;45.328;9.514;2022-11-11T00:44:14;14.00;90.60
36424;DHT22;22458;45.328;9.514;2022-11-11T00:46:59;14.10;90.40
36424;DHT22;22458;45.328;9.514;2022-11-11T00:50:04;14.30;90.30
36424;DHT22;22458;45.328;9.514;2022-11-11T00:53:21;14.40;90.20
36424;DHT22;22458;45.328;9.514;2022-11-11T00:56:06;14.50;90.10
36424;DHT22;22458;45.328;9.514;2022-11-11T00:58:51;14.50;90.10
36424;DHT22;22458;45.328;9.514;2022-11-11T01:01:36;14.50;90.00
36424;DHT22;22458;45.328;9.514;2022-11-11T01:04:21;14.60;90.00
36424;DHT22;22458;45.328;9.514;2022-11-11T01:07:06;14.60;90.00
36424;DHT22;22458;45.328;9.514;2022-11-11T01:09:50;14.60;90.00
36424;DHT22;22458;45.328;9.514;2022-11-11T01:12:35;14.60;90.00
36424;DHT22;22458;45.328;9.514;2022-11-11T01:15:19;14.50;90.10
36424;DHT22;22458;45.328;9.514;2022-11-11T01:18:04;14.40;90.20
36424;DHT22;22458;45.328;9.514;2022-11-11T01:20:57;14.30;90.40
36424;DHT22;22458;45.328;9.514;2022-11-11T01:23:42;14.10;90.80
36424;DHT22;22458;45.328;9.514;2022-11-11T01:26:28;13.90;91.10
36424;DHT22;22458;45.328;9.514;2022-11-11T01:29:14;13.60;91.50
36424;DHT22;22458;45.328;9.514;2022-11-11T01:31:59;13.40;92.00
36424;DHT22;22458;45.328;9.514;2022-11-11T01:34:43;13.30;92.10
36424;DHT22;22458;45.328;9.514;2022-11-11T01:37:27;13.40;92.20
36424;DHT22;22458;45.328;9.514;2022-11-11T01:40:12;13.40;92.10
36424;DHT22;22458;45.328;9.514;2022-11-11T01:43:14;13.60;92.00
36424;DHT22;22458;45.328;9.514;2022-11-11T01:46:00;13.80;91.80
36424;DHT22;22458;45.328;9.514;2022-11-11T01:48:49;14.00;91.50
36424;DHT22;22458;45.328;9.514;2022-11-11T01:52:05;14.20;91.20
36424;DHT22;22458;45.328;9.514;2022-11-11T01:55:15;14.30;91.00
36424;DHT22;22458;45.328;9.514;2022-11-11T01:58:06;14.30;90.90
36424;DHT22;22458;45.328;9.514;2022-11-11T02:00:52;14.20;91.00
36424;DHT22;22458;45.328;9.514;2022-11-11T02:03:39;14.10;91.10
36424;DHT22;22458;45.328;9.514;2022-11-11T02:06:25;14.00;91.20
36424;DHT22;22458;45.328;9.514;2022-11-11T02:09:10;14.10;91.20
36424;DHT22;22458;45.328;9.514;2022-11-11T02:11:57;13.90;91.20
36424;DHT22;22458;45.328;9.514;2022-11-11T02:15:01;13.70;91.80
36424;DHT22;22458;45.328;9.514;2022-11-11T02:17:47;13.60;92.00
36424;DHT22;22458;45.328;9.514;2022-11-11T02:20:37;13.70;91.80
36424;DHT22;22458;45.328;9.514;2022-11-11T02:23:27;13.70;91.90
36424;DHT22;22458;45.328;9.514;2022-11-11T02:26:16;13.70;91.70
36424;DHT22;22458;45.328;9.514;2022-11-11T02:29:04;13.60;92.10
36424;DHT22;22458;45.328;9.514;2022-11-11T02:31:51;13.70;91.80
36424;DHT22;22458;45.328;9.514;2022-11-11T02:34:35;13.70;91.90
36424;DHT22;22458;45.328;9.514;2022-11-11T02:37:22;13.70;91.80
36424;DHT22;22458;45.328;9.514;2022-11-11T02:40:07;13.40;92.00
36424;DHT22;22458;45.328;9.514;2022-11-11T02:42:54;13.30;92.30
36424;DHT22;22458;45.328;9.514;2022-11-11T02:45:38;12.90;92.80
36424;DHT22;22458;45.328;9.514;2022-11-11T02:48:25;12.80;93.10
36424;DHT22;22458;45.328;9.514;2022-11-11T02:51:10;12.80;93.40
36424;DHT22;22458;45.328;9.514;2022-11-11T02:53:54;12.90;93.20
36424;DHT22;22458;45.328;9.514;2022-11-11T02:56:42;12.80;93.30
36424;DHT22;22458;45.328;9.514;2022-11-11T02:59:45;12.90;93.20
36424;DHT22;22458;45.328;9.514;2022-11-11T03:02:29;13.20;92.80
36424;DHT22;22458;45.328;9.514;2022-11-11T03:05:13;13.40;92.40
36424;DHT22;22458;45.328;9.514;2022-11-11T03:07:58;13.60;92.20
36424;DHT22;22458;45.328;9.514;2022-11-11T03:10:42;13.70;92.00
36424;DHT22;22458;45.328;9.514;2022-11-11T03:13:26;13.80;91.90
36424;DHT22;22458;45.328;9.514;2022-11-11T03:16:10;13.90;91.80
36424;DHT22;22458;45.328;9.514;2022-11-11T03:19:14;14.00;91.70
36424;DHT22;22458;45.328;9.514;2022-11-11T03:21:58;14.10;91.60
36424;DHT22;22458;45.328;9.514;2022-11-11T03:24:43;14.10;91.40
36424;DHT22;22458;45.328;9.514;2022-11-11T03:27:46;14.10;91.40
36424;DHT22;22458;45.328;9.514;2022-11-11T03:30:30;14.00;91.50
36424;DHT22;22458;45.328;9.514;2022-11-11T03:33:17;14.00;91.60
36424;DHT22;22458;45.328;9.514;2022-11-11T03:36:01;14.00;91.60
36424;DHT22;22458;45.328;9.514;2022-11-11T03:38:45;14.00;91.50
36424;DHT22;22458;45.328;9.514;2022-11-11T03:41:29;14.10;91.50
36424;DHT22;22458;45.328;9.514;2022-11-11T03:44:13;14.10;91.50
36424;DHT22;22458;45.328;9.514;2022-11-11T03:46:57;14.10;91.50
36424;DHT22;22458;45.328;9.514;2022-11-11T03:49:41;14.10;91.50
36424;DHT22;22458;45.328;9.514;2022-11-11T03:52:28;14.10;91.40
36424;DHT22;22458;45.328;9.514;2022-11-11T03:55:13;14.20;91.50
36424;DHT22;22458;45.328;9.514;2022-11-11T03:57:58;14.10;91.50
36424;DHT22;22458;45.328;9.514;2022-11-11T04:00:41;14.10;91.50
36424;DHT22;22458;45.328;9.514;2022-11-11T04:03:26;14.10;91.50
36424;DHT22;22458;45.328;9.514;2022-11-11T04:06:28;14.00;91.60
36424;DHT22;22458;45.328;9.514;2022-11-11T04:09:31;14.00;91.70
36424;DHT22;22458;45.328;9.514;2022-11-11T04:12:35;13.90;91.80
36424;DHT22;22458;45.328;9.514;2022-11-11T04:15:40;13.90;91.70
36424;DHT22;22458;45.328;9.514;2022-11-11T04:18:43;13.90;91.70
36424;DHT22;22458;45.328;9.514;2022-11-11T04:21:46;13.90;91.80
36424;DHT22;22458;45.328;9.514;2022-11-11T04:24:30;13.90;91.70
36424;DHT22;22458;45.328;9.514;2022-11-11T04:27:33;14.00;91.70
36424;DHT22;22458;45.328;9.514;2022-11-11T04:30:17;13.80;91.80
36424;DHT22;22458;45.328;9.514;2022-11-11T04:33:02;13.70;92.10
36424;DHT22;22458;45.328;9.514;2022-11-11T04:35:49;13.80;92.10
36424;DHT22;22458;45.328;9.514;2022-11-11T04:38:34;13.80;92.20
36424;DHT22;22458;45.328;9.514;2022-11-11T04:41:37;13.80;92.20
36424;DHT22;22458;45.328;9.514;2022-11-11T04:44:21;13.70;92.20
36424;DHT22;22458;45.328;9.514;2022-11-11T04:47:24;13.70;92.30
36424;DHT22;22458;45.328;9.514;2022-11-11T04:50:08;13.70;92.40
36424;DHT22;22458;45.328;9.514;2022-11-11T04:52:53;13.70;92.50
36424;DHT22;22458;45.328;9.514;2022-11-11T04:55:38;13.60;92.60
36424;DHT22;22458;45.328;9.514;2022-11-11T04:58:42;13.50;92.70
36424;DHT22;22458;45.328;9.514;2022-11-11T05:01:26;13.50;92.80
36424;DHT22;22458;45.328;9.514;2022-11-11T05:04:30;13.50;93.00
36424;DHT22;22458;45.328;9.514;2022-11-11T05:07:14;13.50;93.00
36424;DHT22;22458;45.328;9.514;2022-11-11T05:10:17;13.50;93.00
36424;DHT22;22458;45.328;9.514;2022-11-11T05:13:02;13.40;93.10
36424;DHT22;22458;45.328;9.514;2022-11-11T05:16:09;13.40;93.10
36424;DHT22;22458;45.328;9.514;2022-11-11T05:19:15;13.40;93.10
36424;DHT22;22458;45.328;9.514;2022-11-11T05:22:30;13.50;93.10
36424;DHT22;22458;45.328;9.514;2022-11-11T05:25:16;13.40;93.10
36424;DHT22;22458;45.328;9.514;2022-11-11T05:28:09;13.40;93.10
36424;DHT22;22458;45.328;9.514;2022-11-11T05:30:53;13.40;93.10
36424;DHT22;22458;45.328;9.514;2022-11-11T05:33:37;13.40;93.10
36424;DHT22;22458;45.328;9.514;2022-11-11T05:36:22;13.40;93.10
36424;DHT22;22458;45.328;9.514;2022-11-11T05:39:06;13.30;93.00
36424;DHT22;22458;45.328;9.514;2022-11-11T05:41:50;13.30;93.00
36424;DHT22;22458;45.328;9.514;2022-11-11T05:44:34;13.30;93.00
36424;DHT22;22458;45.328;9.514;2022-11-11T05:47:19;13.20;92.90
36424;DHT22;22458;45.328;9.514;2022-11-11T05:50:03;13.20;92.90
36424;DHT22;22458;45.328;9.514;2022-11-11T05:52:48;13.20;92.90
36424;DHT22;22458;45.328;9.514;2022-11-11T05:55:33;13.20;92.90
36424;DHT22;22458;45.328;9.514;2022-11-11T05:58:18;13.10;92.90
36424;DHT22;22458;45.328;9.514;2022-11-11T06:01:02;13.10;93.00
36424;DHT22;22458;45.328;9.514;2022-11-11T06:03:47;13.10;93.10
36424;DHT22;22458;45.328;9.514;2022-11-11T06:06:33;13.10;93.10
36424;DHT22;22458;45.328;9.514;2022-11-11T06:09:18;13.10;93.10
36424;DHT22;22458;45.328;9.514;2022-11-11T06:12:02;12.90;93.20
36424;DHT22;22458;45.328;9.514;2022-11-11T06:14:46;12.90;93.40
36424;DHT22;22458;45.328;9.514;2022-11-11T06:17:32;12.80;93.50
36424;DHT22;22458;45.328;9.514;2022-11-11T06:20:17;12.70;93.70
36424;DHT22;22458;45.328;9.514;2022-11-11T06:23:02;12.70;93.80
36424;DHT22;22458;45.328;9.514;2022-11-11T06:25:47;12.60;93.90
36424;DHT22;22458;45.328;9.514;2022-11-11T06:28:53;12.60;94.00
36424;DHT22;22458;45.328;9.514;2022-11-11T06:31:37;12.60;94.10
36424;DHT22;22458;45.328;9.514;2022-11-11T06:34:21;12.50;94.10
36424;DHT22;22458;45.328;9.514;2022-11-11T06:37:05;12.60;94.10
36424;DHT22;22458;45.328;9.514;2022-11-11T06:39:50;12.60;94.10
36424;DHT22;22458;45.328;9.514;2022-11-11T06:42:36;12.60;94.10
36424;DHT22;22458;45.328;9.514;2022-11-11T06:45:21;12.50;94.10
36424;DHT22;22458;45.328;9.514;2022-11-11T06:48:06;12.60;94.10
36424;DHT22;22458;45.328;9.514;2022-11-11T06:50:51;12.50;94.10
36424;DHT22;22458;45.328;9.514;2022-11-11T06:53:35;12.60;94.10
36424;DHT22;22458;45.328;9.514;2022-11-11T06:56:20;12.60;94.10
36424;DHT22;22458;45.328;9.514;2022-11-11T06:59:04;12.60;94.10
36424;DHT22;22458;45.328;9.514;2022-11-11T07:01:49;12.60;94.00
36424;DHT22;22458;45.328;9.514;2022-11-11T07:04:34;12.60;94.10
36424;DHT22;22458;45.328;9.514;2022-11-11T07:07:18;12.60;94.10
36424;DHT22;22458;45.328;9.514;2022-11-11T07:10:02;12.60;94.20
36424;DHT22;22458;45.328;9.514;2022-11-11T07:12:50;12.60;94.20
36424;DHT22;22458;45.328;9.514;2022-11-11T07:15:35;12.60;94.20
36424;DHT22;22458;45.328;9.514;2022-11-11T07:18:20;12.70;94.10
36424;DHT22;22458;45.328;9.514;2022-11-11T07:21:04;12.80;94.10
36424;DHT22;22458;45.328;9.514;2022-11-11T07:23:49;12.70;94.20
36424;DHT22;22458;45.328;9.514;2022-11-11T07:26:33;12.60;94.30
36424;DHT22;22458;45.328;9.514;2022-11-11T07:29:17;12.50;94.50
36424;DHT22;22458;45.328;9.514;2022-11-11T07:32:02;12.50;94.60
36424;DHT22;22458;45.328;9.514;2022-11-11T07:34:47;12.50;94.70
36424;DHT22;22458;45.328;9.514;2022-11-11T07:37:35;12.60;94.70
36424;DHT22;22458;45.328;9.514;2022-11-11T07:40:20;12.60;94.70
36424;DHT22;22458;45.328;9.514;2022-11-11T07:43:04;12.70;94.60
36424;DHT22;22458;45.328;9.514;2022-11-11T07:45:49;12.80;94.60
36424;DHT22;22458;45.328;9.514;2022-11-11T07:48:33;12.80;94.60
36424;DHT22;22458;45.328;9.514;2022-11-11T07:51:17;12.90;94.60
36424;DHT22;22458;45.328;9.514;2022-11-11T07:54:01;12.90;94.70
36424;DHT22;22458;45.328;9.514;2022-11-11T07:56:45;13.00;94.70
36424;DHT22;22458;45.328;9.514;2022-11-11T07:59:29;13.00;94.70
36424;DHT22;22458;45.328;9.514;2022-11-11T08:02:13;12.80;95.00
36424;DHT22;22458;45.328;9.514;2022-11-11T08:04:57;12.70;95.30
36424;DHT22;22458;45.328;9.514;2022-11-11T08:07:42;12.70;95.40
36424;DHT22;22458;45.328;9.514;2022-11-11T08:10:26;12.70;95.60
36424;DHT22;22458;45.328;9.514;2022-11-11T08:13:11;12.80;95.70
36424;DHT22;22458;45.328;9.514;2022-11-11T08:16:15;12.80;95.80
36424;DHT22;22458;45.328;9.514;2022-11-11T08:18:59;13.00;95.70
36424;DHT22;22458;45.328;9.514;2022-11-11T08:21:44;13.10;95.50
36424;DHT22;22458;45.328;9.514;2022-11-11T08:24:28;13.20;95.30
36424;DHT22;22458;45.328;9.514;2022-11-11T08:27:12;13.30;95.20
36424;DHT22;22458;45.328;9.514;2022-11-11T08:29:57;13.40;95.20
36424;DHT22;22458;45.328;9.514;2022-11-11T08:32:41;13.40;95.10
36424;DHT22;22458;45.328;9.514;2022-11-11T08:35:26;13.50;95.10
36424;DHT22;22458;45.328;9.514;2022-11-11T08:38:10;13.50;95.00
36424;DHT22;22458;45.328;9.514;2022-11-11T08:40:59;13.60;95.10
36424;DHT22;22458;45.328;9.514;2022-11-11T08:43:44;13.60;95.10
36424;DHT22;22458;45.328;9.514;2022-11-11T08:46:28;13.70;95.00
36424;DHT22;22458;45.328;9.514;2022-11-11T08:49:12;13.70;95.00
36424;DHT22;22458;45.328;9.514;2022-11-11T08:51:56;13.70;95.10
36424;DHT22;22458;45.328;9.514;2022-11-11T08:54:40;13.70;95.10
36424;DHT22;22458;45.328;9.514;2022-11-11T08:57:25;13.80;95.00
36424;DHT22;22458;45.328;9.514;2022-11-11T09:00:10;13.80;95.10
36424;DHT22;22458;45.328;9.514;2022-11-11T09:02:59;13.80;95.20
36424;DHT22;22458;45.328;9.514;2022-11-11T09:05:44;13.80;95.20
36424;DHT22;22458;45.328;9.514;2022-11-11T09:08:30;13.90;95.20
36424;DHT22;22458;45.328;9.514;2022-11-11T09:11:14;13.90;95.10
36424;DHT22;22458;45.328;9.514;2022-11-11T09:13:58;14.00;95.10
36424;DHT22;22458;45.328;9.514;2022-11-11T09:16:42;14.10;95.10
36424;DHT22;22458;45.328;9.514;2022-11-11T09:19:26;14.20;95.20
36424;DHT22;22458;45.328;9.514;2022-11-11T09:22:10;14.20;95.10
36424;DHT22;22458;45.328;9.514;2022-11-11T09:24:54;14.30;95.10
36424;DHT22;22458;45.328;9.514;2022-11-11T09:27:39;14.40;95.00
36424;DHT22;22458;45.328;9.514;2022-11-11T09:30:25;14.50;95.00
36424;DHT22;22458;45.328;9.514;2022-11-11T09:33:10;14.60;94.90
36424;DHT22;22458;45.328;9.514;2022-11-11T09:35:57;14.60;94.90
36424;DHT22;22458;45.328;9.514;2022-11-11T09:38:42;14.60;94.90
36424;DHT22;22458;45.328;9.514;2022-11-11T09:47:16;14.70;95.10
36424;DHT22;22458;45.328;9.514;2022-11-11T09:50:09;14.80;95.10
36424;DHT22;22458;45.328;9.514;2022-11-11T09:55:55;15.00;95.10
36424;DHT22;22458;45.328;9.514;2022-11-11T09:58:45;15.00;95.10
36424;DHT22;22458;45.328;9.514;2022-11-11T10:01:40;15.10;95.10
36424;DHT22;22458;45.328;9.514;2022-11-11T10:04:54;15.10;95.10
36424;DHT22;22458;45.328;9.514;2022-11-11T10:07:59;15.20;95.00
36424;DHT22;22458;45.328;9.514;2022-11-11T10:10:50;15.30;95.10
36424;DHT22;22458;45.328;9.514;2022-11-11T10:13:36;15.40;95.00
36424;DHT22;22458;45.328;9.514;2022-11-11T10:17:33;15.40;95.00
36424;DHT22;22458;45.328;9.514;2022-11-11T10:22:55;15.50;95.00
36424;DHT22;22458;45.328;9.514;2022-11-11T10:25:55;15.60;95.00
36424;DHT22;22458;45.328;9.514;2022-11-11T10:28:42;15.70;95.00
36424;DHT22;22458;45.328;9.514;2022-11-11T10:31:27;15.70;94.90
36424;DHT22;22458;45.328;9.514;2022-11-11T10:34:13;15.80;95.00
36424;DHT22;22458;45.328;9.514;2022-11-11T10:36:59;15.80;94.90
36424;DHT22;22458;45.328;9.514;2022-11-11T10:42:50;15.90;94.80
36424;DHT22;22458;45.328;9.514;2022-11-11T10:48:55;15.90;94.80
36424;DHT22;22458;45.328;9.514;2022-11-11T10:51:50;16.00;94.80
36424;DHT22;22458;45.328;9.514;2022-11-11T10:55:10;16.00;94.70
36424;DHT22;22458;45.328;9.514;2022-11-11T10:58:14;16.10;94.70
36424;DHT22;22458;45.328;9.514;2022-11-11T11:01:01;16.20;94.70
36424;DHT22;22458;45.328;9.514;2022-11-11T11:03:57;16.20;94.60
36424;DHT22;22458;45.328;9.514;2022-11-11T11:06:45;16.30;94.50
36424;DHT22;22458;45.328;9.514;2022-11-11T11:12:40;16.40;94.40
36424;DHT22;22458;45.328;9.514;2022-11-11T11:15:27;16.50;94.20
36424;DHT22;22458;45.328;9.514;2022-11-11T11:18:14;16.60;94.10
36424;DHT22;22458;45.328;9.514;2022-11-11T11:21:00;16.70;94.00
36424;DHT22;22458;45.328;9.514;2022-11-11T11:23:46;16.80;93.80
36424;DHT22;22458;45.328;9.514;2022-11-11T11:26:45;16.90;93.70
36424;DHT22;22458;45.328;9.514;2022-11-11T11:29:39;17.00;93.50
36424;DHT22;22458;45.328;9.514;2022-11-11T11:32:31;17.20;93.40
36424;DHT22;22458;45.328;9.514;2022-11-11T11:35:37;17.40;93.20
36424;DHT22;22458;45.328;9.514;2022-11-11T11:38:42;17.40;93.00
36424;DHT22;22458;45.328;9.514;2022-11-11T11:41:44;17.40;92.80
36424;DHT22;22458;45.328;9.514;2022-11-11T11:44:37;17.40;92.70
36424;DHT22;22458;45.328;9.514;2022-11-11T11:50:23;17.30;92.60
36424;DHT22;22458;45.328;9.514;2022-11-11T11:56:41;17.40;92.70
36424;DHT22;22458;45.328;9.514;2022-11-11T11:59:39;17.40;92.50
36424;DHT22;22458;45.328;9.514;2022-11-11T12:02:36;17.30;92.50
36424;DHT22;22458;45.328;9.514;2022-11-11T12:05:25;17.20;92.50
36424;DHT22;22458;45.328;9.514;2022-11-11T12:35:04;17.30;92.30
36424;DHT22;22458;45.328;9.514;2022-11-11T12:41:07;17.40;92.10
36424;DHT22;22458;45.328;9.514;2022-11-11T12:44:05;17.50;92.00
36424;DHT22;22458;45.328;9.514;2022-11-11T12:59:02;17.80;91.50
36424;DHT22;22458;45.328;9.514;2022-11-11T13:02:04;17.80;91.50
36424;DHT22;22458;45.328;9.514;2022-11-11T13:05:09;17.80;91.30
36424;DHT22;22458;45.328;9.514;2022-11-11T13:16:54;17.80;91.20
36424;DHT22;22458;45.328;9.514;2022-11-11T13:19:53;17.80;91.20
36424;DHT22;22458;45.328;9.514;2022-11-11T13:22:39;17.80;91.20
36424;DHT22;22458;45.328;9.514;2022-11-11T13:25:26;17.90;91.10
36424;DHT22;22458;45.328;9.514;2022-11-11T13:28:18;17.80;91.00
36424;DHT22;22458;45.328;9.514;2022-11-11T13:34:13;17.90;91.00
36424;DHT22;22458;45.328;9.514;2022-11-11T13:36:58;18.00;90.90
36424;DHT22;22458;45.328;9.514;2022-11-11T13:39:48;18.00;90.90
36424;DHT22;22458;45.328;9.514;2022-11-11T13:42:38;18.10;90.80
36424;DHT22;22458;45.328;9.514;2022-11-11T13:45:32;18.10;90.70
36424;DHT22;22458;45.328;9.514;2022-11-11T13:51:35;18.10;90.60
36424;DHT22;22458;45.328;9.514;2022-11-11T14:09:00;18.00;90.50
36424;DHT22;22458;45.328;9.514;2022-11-11T14:11:44;18.00;90.50
36424;DHT22;22458;45.328;9.514;2022-11-11T14:17:20;18.10;90.40
36424;DHT22;22458;45.328;9.514;2022-11-11T14:23:34;18.20;90.30
36424;DHT22;22458;45.328;9.514;2022-11-11T14:26:23;18.10;90.30
36424;DHT22;22458;45.328;9.514;2022-11-11T14:29:13;18.10;90.30
36424;DHT22;22458;45.328;9.514;2022-11-11T14:32:55;18.10;90.30
36424;DHT22;22458;45.328;9.514;2022-11-11T14:36:11;18.10;90.30
36424;DHT22;22458;45.328;9.514;2022-11-11T14:42:06;18.10;90.20
36424;DHT22;22458;45.328;9.514;2022-11-11T14:48:50;18.10;90.20
36424;DHT22;22458;45.328;9.514;2022-11-11T14:52:04;18.10;90.30
36424;DHT22;22458;45.328;9.514;2022-11-11T15:01:00;18.10;90.20
36424;DHT22;22458;45.328;9.514;2022-11-11T15:03:48;18.10;90.30
36424;DHT22;22458;45.328;9.514;2022-11-11T15:06:38;18.00;90.40
36424;DHT22;22458;45.328;9.514;2022-11-11T15:09:50;18.00;90.40
36424;DHT22;22458;45.328;9.514;2022-11-11T15:22:07;18.00;90.30
36424;DHT22;22458;45.328;9.514;2022-11-11T15:25:06;17.90;90.40
36424;DHT22;22458;45.328;9.514;2022-11-11T15:31:50;17.90;90.40
36424;DHT22;22458;45.328;9.514;2022-11-11T15:38:13;17.80;90.60
36424;DHT22;22458;45.328;9.514;2022-11-11T15:40:59;17.70;90.70
36424;DHT22;22458;45.328;9.514;2022-11-11T15:43:44;17.70;90.70
36424;DHT22;22458;45.328;9.514;2022-11-11T15:46:30;17.70;90.70
36424;DHT22;22458;45.328;9.514;2022-11-11T15:55:20;17.60;90.80
36424;DHT22;22458;45.328;9.514;2022-11-11T15:58:30;17.60;90.80
36424;DHT22;22458;45.328;9.514;2022-11-11T16:01:15;17.50;90.80
36424;DHT22;22458;45.328;9.514;2022-11-11T16:03:59;17.50;90.90
36424;DHT22;22458;45.328;9.514;2022-11-11T16:06:44;17.40;90.80
36424;DHT22;22458;45.328;9.514;2022-11-11T16:09:30;17.30;90.90
36424;DHT22;22458;45.328;9.514;2022-11-11T16:12:23;17.30;90.90
36424;DHT22;22458;45.328;9.514;2022-11-11T16:15:09;17.30;90.90
36424;DHT22;22458;45.328;9.514;2022-11-11T16:17:56;17.20;90.90
36424;DHT22;22458;45.328;9.514;2022-11-11T16:21:06;17.20;90.90
36424;DHT22;22458;45.328;9.514;2022-11-11T16:23:52;17.10;90.80
36424;DHT22;22458;45.328;9.514;2022-11-11T16:26:37;17.00;90.90
36424;DHT22;22458;45.328;9.514;2022-11-11T16:29:22;17.00;90.90
36424;DHT22;22458;45.328;9.514;2022-11-11T16:35:41;16.90;90.90
36424;DHT22;22458;45.328;9.514;2022-11-11T16:38:34;16.80;90.80
36424;DHT22;22458;45.328;9.514;2022-11-11T16:41:30;16.70;90.90
36424;DHT22;22458;45.328;9.514;2022-11-11T16:44:38;16.60;91.10
36424;DHT22;22458;45.328;9.514;2022-11-11T16:50:27;16.50;91.20
36424;DHT22;22458;45.328;9.514;2022-11-11T16:53:25;16.50;91.40
36424;DHT22;22458;45.328;9.514;2022-11-11T16:56:24;16.40;91.30
36424;DHT22;22458;45.328;9.514;2022-11-11T16:59:38;16.40;91.30
36424;DHT22;22458;45.328;9.514;2022-11-11T17:02:24;16.30;91.30
36424;DHT22;22458;45.328;9.514;2022-11-11T17:05:08;16.30;91.30
36424;DHT22;22458;45.328;9.514;2022-11-11T17:07:52;16.20;91.30
36424;DHT22;22458;45.328;9.514;2022-11-11T17:10:38;16.20;91.40
36424;DHT22;22458;45.328;9.514;2022-11-11T17:13:24;16.20;91.40
36424;DHT22;22458;45.328;9.514;2022-11-11T17:16:09;16.20;91.40
36424;DHT22;22458;45.328;9.514;2022-11-11T17:18:55;16.20;91.50
36424;DHT22;22458;45.328;9.514;2022-11-11T17:21:41;16.40;91.00
36424;DHT22;22458;45.328;9.514;2022-11-11T17:24:32;16.50;90.70
36424;DHT22;22458;45.328;9.514;2022-11-11T17:27:16;16.60;90.40
36424;DHT22;22458;45.328;9.514;2022-11-11T17:30:00;16.70;90.30
36424;DHT22;22458;45.328;9.514;2022-11-11T17:32:46;16.70;90.10
36424;DHT22;22458;45.328;9.514;2022-11-11T17:35:32;16.70;90.00
36424;DHT22;22458;45.328;9.514;2022-11-11T17:38:16;16.80;89.90
36424;DHT22;22458;45.328;9.514;2022-11-11T17:41:01;16.90;89.60
36424;DHT22;22458;45.328;9.514;2022-11-11T17:43:45;16.90;89.50
36424;DHT22;22458;45.328;9.514;2022-11-11T17:46:29;16.90;89.10
36424;DHT22;22458;45.328;9.514;2022-11-11T17:49:13;16.90;88.60
36424;DHT22;22458;45.328;9.514;2022-11-11T17:51:59;16.90;88.50
36424;DHT22;22458;45.328;9.514;2022-11-11T17:54:44;16.90;88.30
36424;DHT22;22458;45.328;9.514;2022-11-11T17:57:28;16.90;88.30
36424;DHT22;22458;45.328;9.514;2022-11-11T18:00:13;16.90;88.20
36424;DHT22;22458;45.328;9.514;2022-11-11T18:02:57;16.80;87.90
36424;DHT22;22458;45.328;9.514;2022-11-11T18:05:41;16.80;87.90
36424;DHT22;22458;45.328;9.514;2022-11-11T18:08:27;16.80;87.80
36424;DHT22;22458;45.328;9.514;2022-11-11T18:11:11;16.90;87.80
36424;DHT22;22458;45.328;9.514;2022-11-11T18:13:56;16.90;87.70
36424;DHT22;22458;45.328;9.514;2022-11-11T18:16:40;16.90;87.60
36424;DHT22;22458;45.328;9.514;2022-11-11T18:19:24;16.90;87.60
36424;DHT22;22458;45.328;9.514;2022-11-11T18:22:08;16.80;87.40
36424;DHT22;22458;45.328;9.514;2022-11-11T18:24:52;16.80;87.50
36424;DHT22;22458;45.328;9.514;2022-11-11T18:27:36;16.70;87.50
36424;DHT22;22458;45.328;9.514;2022-11-11T18:30:20;16.70;87.40
36424;DHT22;22458;45.328;9.514;2022-11-11T18:33:05;16.60;87.40
36424;DHT22;22458;45.328;9.514;2022-11-11T18:35:50;16.50;88.00
36424;DHT22;22458;45.328;9.514;2022-11-11T18:38:35;16.50;87.40
36424;DHT22;22458;45.328;9.514;2022-11-11T18:41:20;16.50;87.80
36424;DHT22;22458;45.328;9.514;2022-11-11T18:44:04;16.50;87.10
36424;DHT22;22458;45.328;9.514;2022-11-11T18:46:49;16.50;87.20
36424;DHT22;22458;45.328;9.514;2022-11-11T18:49:33;16.50;87.10
36424;DHT22;22458;45.328;9.514;2022-11-11T18:52:17;16.40;87.00
36424;DHT22;22458;45.328;9.514;2022-11-11T18:55:02;16.40;87.00
36424;DHT22;22458;45.328;9.514;2022-11-11T18:57:46;16.30;87.00
36424;DHT22;22458;45.328;9.514;2022-11-11T19:00:31;16.30;86.90
36424;DHT22;22458;45.328;9.514;2022-11-11T19:03:15;16.30;86.80
36424;DHT22;22458;45.328;9.514;2022-11-11T19:06:01;16.30;86.80
36424;DHT22;22458;45.328;9.514;2022-11-11T19:08:46;16.20;86.70
36424;DHT22;22458;45.328;9.514;2022-11-11T19:11:30;16.20;86.60
36424;DHT22;22458;45.328;9.514;2022-11-11T19:14:16;16.10;86.60
36424;DHT22;22458;45.328;9.514;2022-11-11T19:17:01;16.10;86.60
36424;DHT22;22458;45.328;9.514;2022-11-11T19:19:45;16.10;86.50
36424;DHT22;22458;45.328;9.514;2022-11-11T19:22:29;16.00;86.50
36424;DHT22;22458;45.328;9.514;2022-11-11T19:25:14;16.00;86.40
36424;DHT22;22458;45.328;9.514;2022-11-11T19:27:58;16.00;86.40
36424;DHT22;22458;45.328;9.514;2022-11-11T19:30:42;15.90;86.50
36424;DHT22;22458;45.328;9.514;2022-11-11T19:33:27;15.90;86.40
36424;DHT22;22458;45.328;9.514;2022-11-11T19:36:13;15.90;86.10
36424;DHT22;22458;45.328;9.514;2022-11-11T19:39:00;15.70;86.20
36424;DHT22;22458;45.328;9.514;2022-11-11T19:41:44;15.70;86.40
36424;DHT22;22458;45.328;9.514;2022-11-11T19:44:28;15.70;86.50
36424;DHT22;22458;45.328;9.514;2022-11-11T19:47:13;15.70;86.50
36424;DHT22;22458;45.328;9.514;2022-11-11T19:49:57;15.70;86.50
36424;DHT22;22458;45.328;9.514;2022-11-11T19:52:42;15.60;86.40
36424;DHT22;22458;45.328;9.514;2022-11-11T19:55:26;15.70;86.30
36424;DHT22;22458;45.328;9.514;2022-11-11T19:58:11;15.60;86.20
36424;DHT22;22458;45.328;9.514;2022-11-11T20:00:55;15.60;86.20
36424;DHT22;22458;45.328;9.514;2022-11-11T20:03:40;15.40;86.50
36424;DHT22;22458;45.328;9.514;2022-11-11T20:09:14;15.20;87.50
36424;DHT22;22458;45.328;9.514;2022-11-11T20:11:58;15.20;87.50
36424;DHT22;22458;45.328;9.514;2022-11-11T20:14:42;15.20;87.70
36424;DHT22;22458;45.328;9.514;2022-11-11T20:17:27;15.10;87.70